Terminal Aerodrome Forecast
Issued by NWS

Home | Current Version | Previous Version | Text Only | Print | Product List | Glossary On
Versions: 1 2 3 4 5 6 7 8 9 10 11 12 13
000
FTUS43 KAPX 181720
TAFAPN
TAF
KAPN 181720Z 1818/1918 21014G23KT P6SM SKC
     FM190100 21013G24KT P6SM SKC WS020/22040KT
     FM190700 23009KT P6SM FEW200 WS020/25040KT
     FM190900 24008KT P6SM SCT200
     FM191400 27009KT P6SM FEW250=

USA.gov is the U.S. government's official web portal to all federal, state and local government web resources and services.